JZA205 CYYZ-CYAM
Flight info
| Callsign | JZA205 |
|---|---|
| Flight time | N/A |
| Altitude | 32000 |
| Route | AVSEP7 MUSIT |
| Aircraft | CRJ9/M-SDFGIRWY/S |
Departure
| Time | 2026-05-05 02:56 |
|---|---|
| Airport | Toronto Pearson International Airport (CYYZ) |
Arrival
| Time | N/A |
|---|---|
| Airport | Sault Ste Marie Airport (CYAM) |
| Time | Latitude | Longitude | Altitude | Speed | Heading |
|---|---|---|---|---|---|
| 2026-05-05 02:30 | 43.68279 | -79.61519 | 564 ft | 0 kts | 225° |
| 2026-05-05 02:45 | 43.68291 | -79.61503 | 567 ft | 4 kts | 230° |
| 2026-05-05 02:45 | 43.68296 | -79.61480 | 563 ft | 4 kts | 300° |
| 2026-05-05 02:45 | 43.68303 | -79.61492 | 564 ft | 4 kts | 311° |
| 2026-05-05 02:45 | 43.68311 | -79.61503 | 565 ft | 0 kts | 316° |
| 2026-05-05 02:48 | 43.68313 | -79.61506 | 565 ft | 1 kts | 316° |
| 2026-05-05 02:48 | 43.68328 | -79.61524 | 561 ft | 4 kts | 316° |
| 2026-05-05 02:48 | 43.68358 | -79.61564 | 562 ft | 8 kts | 316° |
| 2026-05-05 02:48 | 43.68403 | -79.61623 | 560 ft | 11 kts | 316° |
| 2026-05-05 02:49 | 43.68439 | -79.61717 | 560 ft | 12 kts | 266° |
| 2026-05-05 02:49 | 43.68383 | -79.61808 | 565 ft | 14 kts | 209° |
| 2026-05-05 02:49 | 43.68284 | -79.61836 | 564 ft | 15 kts | 173° |
| 2026-05-05 02:49 | 43.68182 | -79.61818 | 565 ft | 15 kts | 183° |
| 2026-05-05 02:50 | 43.68103 | -79.61892 | 568 ft | 14 kts | 232° |
| 2026-05-05 02:50 | 43.68040 | -79.61984 | 560 ft | 10 kts | 198° |
| 2026-05-05 02:50 | 43.67977 | -79.62017 | 561 ft | 10 kts | 218° |
| 2026-05-05 02:50 | 43.67927 | -79.62081 | 566 ft | 9 kts | 226° |
| 2026-05-05 02:51 | 43.67905 | -79.62113 | 565 ft | 0 kts | 226° |
| 2026-05-05 02:51 | 43.67902 | -79.62117 | 565 ft | 1 kts | 226° |
| 2026-05-05 02:51 | 43.67893 | -79.62134 | 566 ft | 3 kts | 241° |
| 2026-05-05 02:52 | 43.67889 | -79.62154 | 564 ft | 4 kts | 260° |
| 2026-05-05 02:52 | 43.67891 | -79.62194 | 566 ft | 5 kts | 285° |
| 2026-05-05 02:52 | 43.67903 | -79.62249 | 569 ft | 7 kts | 285° |
| 2026-05-05 02:52 | 43.67920 | -79.62324 | 565 ft | 9 kts | 288° |
| 2026-05-05 02:53 | 43.67924 | -79.62339 | 569 ft | 0 kts | 288° |
| 2026-05-05 02:53 | 43.67925 | -79.62344 | 564 ft | 3 kts | 288° |
| 2026-05-05 02:54 | 43.67939 | -79.62403 | 570 ft | 10 kts | 288° |
| 2026-05-05 02:54 | 43.67965 | -79.62515 | 569 ft | 11 kts | 288° |
| 2026-05-05 02:54 | 43.67985 | -79.62604 | 567 ft | 9 kts | 288° |
| 2026-05-05 02:54 | 43.68018 | -79.62677 | 567 ft | 8 kts | 313° |
| 2026-05-05 02:55 | 43.68032 | -79.62695 | 573 ft | 8 kts | 317° |
| 2026-05-05 02:55 | 43.68245 | -79.62977 | 573 ft | 81 kts | 316° |
| 2026-05-05 02:55 | 43.68826 | -79.63736 | 568 ft | 145 kts | 316° |
| 2026-05-05 02:55 | 43.69670 | -79.64759 | 812 ft | 169 kts | 314° |
| 2026-05-05 02:56 | 43.70581 | -79.65826 | 1418 ft | 170 kts | 314° |
| 2026-05-05 02:56 | 43.71501 | -79.66711 | 2260 ft | 163 kts | 309° |
| 2026-05-05 02:56 | 43.72528 | -79.67781 | 2409 ft | 200 kts | 307° |
| 2026-05-05 02:56 | 43.73614 | -79.68986 | 3381 ft | 195 kts | 308° |
| 2026-05-05 02:57 | 43.74657 | -79.70109 | 4389 ft | 189 kts | 310° |
| 2026-05-05 02:57 | 43.75701 | -79.71214 | 5268 ft | 186 kts | 310° |
| 2026-05-05 02:57 | 43.76739 | -79.72320 | 6016 ft | 190 kts | 312° |
| 2026-05-05 02:57 | 43.77829 | -79.73505 | 6551 ft | 202 kts | 312° |
| 2026-05-05 02:58 | 43.78891 | -79.74643 | 7559 ft | 189 kts | 312° |
| 2026-05-05 02:58 | 43.79912 | -79.75713 | 8464 ft | 181 kts | 312° |
| 2026-05-05 02:58 | 43.80827 | -79.76852 | 9159 ft | 172 kts | 293° |
| 2026-05-05 02:58 | 43.81433 | -79.78244 | 9838 ft | 169 kts | 294° |
| 2026-05-05 02:59 | 43.82122 | -79.79602 | 10421 ft | 174 kts | 298° |